Beaux Arts Village, Washington
Current Conditions -  °F | °C
As of 2:53 AM on Saturday 01 Nov 2014 (Local Time) from KBFI Reporting Station
Overcast Overcast  
Wind Chill: 51°   Ceiling: 700
Heat Index: 51°   Visibility: 10mi
Dew Point: 48°   Wind: 0mph
Humidity: 89%   Direction: NA
Pressure: 29.84"   Gusts: NA
Location:  47.6186°N, 122.204°W
Report Text: KBFI 010953Z 00000KT 10SM BKN007 OVC019 11/09 A2984 RMK AO2 CIG 005V008 SLP105 T01060089
Loading
Personal Weather Stations






























Interactive Weather Map
Tropical Storm Tracking
New forecast layout! Learn more

10-Day Weather Forecast

Advertisements
Track Severe Weather on mobile